Terminal Aerodrome Forecast
Issued by NWS Austin/San Antonio, TX

Home | Current Version | Previous Version | Text Only | Print | Product List | Glossary On
Versions: 1 2 3 4 5 6 7 8 9 10 11 12 13 14 15 16 17 18 19 20 21
000
FTUS44 KEWX 201700
TAFDRT
TAF
KDRT 201737Z 2018/2118 14015G20KT P6SM FEW030 SCT250
     FM210400 13008KT P6SM SCT250
     FM211500 13015KT P6SM BKN025=

USA.gov is the U.S. government's official web portal to all federal, state and local government web resources and services.